Time;durP1;ratioP1;P1;durP2;ratioP2;P2;SDS_P1;SDS_P2;PMS_P1;PMS_P2;Temp;Humidity;BMP_temperature;BMP_pressure;BME280_temperature;BME280_humidity;BME280_pressure;Samples;Min_cycle;Max_cycle;Signal;HPM_P1;HPM_P2
2022/03/17 00:00:04;;;;;;;31.58;28.60;;;9.20;99.90;;;;;;6109082;23;20186;-78
2022/03/17 00:02:31;;;;;;;30.73;27.83;;;9.20;99.90;;;;;;6112345;23;20236;-78
2022/03/17 00:04:59;;;;;;;30.73;27.83;;;9.20;99.90;;;;;;6110384;23;20670;-78
2022/03/17 00:07:27;;;;;;;30.90;28.00;;;9.20;99.90;;;;;;6103702;23;20194;-78
2022/03/17 00:09:54;;;;;;;31.75;28.90;;;9.20;99.90;;;;;;6110170;23;20544;-78
2022/03/17 00:12:21;;;;;;;31.02;28.13;;;9.20;99.90;;;;;;6116967;23;20249;-79
2022/03/17 00:14:48;;;;;;;31.08;28.17;;;9.20;99.90;;;;;;6111960;23;20188;-78
2022/03/17 00:17:15;;;;;;;30.95;28.13;;;9.20;99.90;;;;;;6103029;23;20218;-78
2022/03/17 00:19:42;;;;;;;30.02;27.23;;;9.20;99.90;;;;;;6102556;23;20185;-78
2022/03/17 00:22:15;;;;;;;32.75;29.63;;;9.20;99.90;;;;;;6103276;23;20548;-78
2022/03/17 00:24:43;;;;;;;30.42;27.58;;;9.20;99.90;;;;;;6108380;23;20702;-78
2022/03/17 00:27:10;;;;;;;31.45;28.55;;;9.20;99.90;;;;;;6105712;23;20197;-79
2022/03/17 00:29:38;;;;;;;31.40;28.40;;;9.20;99.90;;;;;;6101914;23;20273;-78
2022/03/17 00:32:08;;;;;;;32.42;29.33;;;9.10;99.90;;;;;;6115359;23;20580;-78
2022/03/17 00:35:35;;;;;;;31.95;28.55;;;9.10;99.90;;;;;;6105788;23;20186;-78
2022/03/17 00:37:24;;;;;;;32.28;29.17;;;9.10;99.90;;;;;;6102964;23;20235;-78
2022/03/17 00:39:51;;;;;;;31.85;28.85;;;9.10;99.90;;;;;;6108219;23;20637;-78
2022/03/17 00:42:19;;;;;;;32.92;29.73;;;9.10;99.90;;;;;;6108204;23;20276;-78
2022/03/17 00:44:47;;;;;;;32.63;29.52;;;9.10;99.90;;;;;;6115749;23;20753;-78
2022/03/17 00:47:14;;;;;;;31.30;28.38;;;9.00;99.90;;;;;;6108328;23;20228;-78
2022/03/17 00:49:41;;;;;;;33.38;30.27;;;9.00;99.90;;;;;;6113750;23;20236;-78
2022/03/17 00:52:11;;;;;;;31.45;28.55;;;9.00;99.90;;;;;;6104659;23;20201;-79
2022/03/17 00:54:40;;;;;;;32.15;28.95;;;9.00;99.90;;;;;;6096493;23;20265;-78
2022/03/17 00:57:07;;;;;;;31.75;28.70;;;9.00;99.90;;;;;;6094026;23;20225;-78
2022/03/17 00:59:34;;;;;;;32.20;29.05;;;9.00;99.90;;;;;;6115161;23;20186;-78
2022/03/17 01:02:01;;;;;;;32.28;29.17;;;9.00;99.90;;;;;;6111552;23;20198;-78
2022/03/17 01:04:27;;;;;;;33.60;30.40;;;8.90;99.90;;;;;;6115373;23;20580;-78
2022/03/17 01:06:54;;;;;;;32.65;29.40;;;9.00;99.90;;;;;;6100788;23;20288;-78
2022/03/17 01:09:21;;;;;;;33.00;29.75;;;9.00;99.90;;;;;;6106721;23;20272;-78
2022/03/17 01:11:50;;;;;;;32.30;29.23;;;9.00;99.90;;;;;;6111617;23;20189;-78
2022/03/17 01:14:17;;;;;;;33.65;30.42;;;8.90;99.90;;;;;;6102276;23;20190;-78
2022/03/17 01:16:44;;;;;;;32.90;29.60;;;9.00;99.90;;;;;;6104045;23;20244;-78
2022/03/17 01:19:11;;;;;;;33.63;30.33;;;9.00;99.90;;;;;;6100135;23;20264;-78
2022/03/17 01:21:38;;;;;;;33.08;29.88;;;8.90;99.90;;;;;;6108883;23;20189;-78
2022/03/17 01:24:05;;;;;;;33.58;30.30;;;8.90;99.90;;;;;;6114449;23;20193;-78
2022/03/17 01:26:32;;;;;;;32.15;29.13;;;8.90;99.90;;;;;;6113287;23;20290;-78
2022/03/17 01:29:01;;;;;;;33.92;30.63;;;8.90;99.90;;;;;;6106364;23;20294;-78
2022/03/17 01:31:27;;;;;;;30.73;27.77;;;8.90;99.90;;;;;;6104620;23;20216;-78
2022/03/17 01:33:54;;;;;;;31.80;28.70;;;8.90;99.90;;;;;;6098645;23;20262;-78
2022/03/17 01:36:21;;;;;;;33.38;30.08;;;8.80;99.90;;;;;;6096127;23;20206;-78
2022/03/17 01:38:48;;;;;;;30.90;28.00;;;8.90;99.90;;;;;;6111944;23;20368;-78
2022/03/17 01:41:15;;;;;;;33.92;30.55;;;8.90;99.90;;;;;;6103148;23;20645;-79
2022/03/17 01:43:43;;;;;;;31.77;28.77;;;8.90;99.90;;;;;;6113155;23;20193;-78
2022/03/17 01:46:14;;;;;;;32.83;29.63;;;8.90;99.90;;;;;;6101800;23;20624;-78
2022/03/17 01:48:41;;;;;;;32.47;29.38;;;8.90;99.90;;;;;;6101552;23;20293;-78
2022/03/17 01:51:08;;;;;;;31.33;28.35;;;9.00;99.90;;;;;;6100199;23;20199;-78
2022/03/17 01:53:36;;;;;;;32.13;29.02;;;9.00;99.90;;;;;;6113690;23;20274;-78
2022/03/17 01:56:04;;;;;;;30.90;27.80;;;9.00;99.90;;;;;;6104249;23;20294;-78
2022/03/17 01:58:32;;;;;;;31.85;28.83;;;9.00;99.90;;;;;;6116020;23;20202;-78
2022/03/17 02:00:59;;;;;;;31.38;28.27;;;9.00;99.90;;;;;;6101930;23;20193;-78
2022/03/17 02:03:27;;;;;;;32.28;29.17;;;9.00;99.90;;;;;;6108722;23;20268;-78
2022/03/17 02:05:55;;;;;;;31.58;28.67;;;9.00;99.90;;;;;;6103997;23;20208;-78
2022/03/17 02:08:22;;;;;;;31.70;28.60;;;9.00;99.90;;;;;;6111389;23;20200;-78
2022/03/17 02:13:33;;;;;;;31.45;28.45;;;9.00;99.90;;;;;;6109202;23;20189;-78
2022/03/17 02:16:03;;;;;;;31.52;28.23;;;9.00;99.90;;;;;;6109545;23;20207;-78
2022/03/17 02:18:32;;;;;;;30.42;27.33;;;9.00;99.90;;;;;;6102366;23;20297;-78
2022/03/17 02:20:59;;;;;;;31.35;28.42;;;8.90;99.90;;;;;;6104427;23;20555;-78
2022/03/17 02:26:12;;;;;;;32.83;29.60;;;8.80;99.90;;;;;;6103278;23;20206;-78
2022/03/17 02:28:39;;;;;;;32.70;29.55;;;8.90;99.90;;;;;;6115495;23;20190;-78
2022/03/17 02:31:06;;;;;;;31.73;28.67;;;8.80;99.90;;;;;;6110440;23;20193;-78
2022/03/17 02:33:35;;;;;;;31.17;28.13;;;8.80;99.90;;;;;;6114569;23;20181;-78
2022/03/17 02:36:02;;;;;;;30.10;27.20;;;8.80;99.90;;;;;;6104210;23;20296;-78
2022/03/17 02:38:30;;;;;;;31.48;28.48;;;8.80;99.90;;;;;;6104585;23;20219;-78
2022/03/17 02:40:57;;;;;;;31.98;28.83;;;8.80;99.90;;;;;;6104075;23;20308;-78
2022/03/17 02:43:24;;;;;;;30.58;27.48;;;8.80;99.90;;;;;;6104976;23;20190;-78
2022/03/17 02:45:51;;;;;;;31.00;28.02;;;8.80;99.90;;;;;;6114719;23;20277;-78
2022/03/17 02:48:18;;;;;;;31.35;28.15;;;8.80;99.90;;;;;;6109956;23;20196;-78
2022/03/17 02:50:46;;;;;;;31.70;28.50;;;8.70;99.90;;;;;;6111863;23;20185;-78
2022/03/17 02:53:13;;;;;;;31.40;28.40;;;8.70;99.90;;;;;;6104151;23;20193;-78
2022/03/17 02:55:44;;;;;;;31.35;28.25;;;8.70;99.90;;;;;;6101815;23;20207;-78
2022/03/17 02:58:11;;;;;;;30.25;27.27;;;8.70;99.90;;;;;;6098777;23;20231;-78
2022/03/17 03:00:39;;;;;;;30.65;27.38;;;8.70;99.90;;;;;;6102635;23;20268;-78
2022/03/17 03:03:06;;;;;;;31.55;28.45;;;8.70;99.90;;;;;;6117643;23;20265;-78
2022/03/17 03:05:34;;;;;;;33.05;29.75;;;8.70;99.90;;;;;;6106154;23;20205;-78
2022/03/17 03:08:02;;;;;;;31.83;28.73;;;8.70;99.90;;;;;;6116040;23;20275;-78
2022/03/17 03:10:29;;;;;;;31.75;28.55;;;8.60;99.90;;;;;;6111106;23;20288;-78
2022/03/17 03:12:57;;;;;;;32.25;27.95;;;8.60;99.90;;;;;;6110402;23;20261;-78
2022/03/17 03:15:24;;;;;;;31.20;28.10;;;8.60;99.90;;;;;;6107784;23;20212;-78
2022/03/17 03:17:51;;;;;;;33.60;30.23;;;8.50;99.90;;;;;;6113076;23;20221;-78
2022/03/17 03:20:19;;;;;;;30.95;27.85;;;8.50;99.90;;;;;;6115023;23;20545;-78
2022/03/17 03:22:45;;;;;;;31.90;28.77;;;8.50;99.90;;;;;;6104663;23;21066;-78
2022/03/17 03:25:13;;;;;;;32.65;29.40;;;8.50;99.90;;;;;;6107249;23;20209;-78
2022/03/17 03:27:40;;;;;;;32.08;28.85;;;8.50;99.90;;;;;;6114792;23;20196;-78
2022/03/17 03:30:12;;;;;;;32.83;29.45;;;8.50;99.90;;;;;;6110182;23;20187;-78
2022/03/17 03:32:39;;;;;;;31.65;28.45;;;8.50;99.90;;;;;;6099759;23;20186;-78
2022/03/17 03:37:48;;;;;;;32.70;29.50;;;8.40;99.90;;;;;;6103522;23;20579;-78
2022/03/17 03:40:15;;;;;;;32.50;29.30;;;8.40;99.90;;;;;;6098580;23;20190;-78
2022/03/17 03:42:42;;;;;;;32.47;29.25;;;8.40;99.90;;;;;;6104005;23;20202;-78
2022/03/17 03:45:11;;;;;;;31.65;28.42;;;8.50;99.90;;;;;;6105333;23;20622;-78
2022/03/17 03:47:38;;;;;;;32.00;28.85;;;8.50;99.90;;;;;;6114407;23;20229;-78
2022/03/17 03:50:05;;;;;;;31.90;28.50;;;8.40;99.90;;;;;;6107010;23;20184;-78
2022/03/17 03:52:32;;;;;;;33.47;29.98;;;8.40;99.90;;;;;;6112970;23;20188;-78
2022/03/17 03:54:59;;;;;;;32.28;28.98;;;8.40;99.90;;;;;;6116302;23;20205;-78
2022/03/17 03:57:26;;;;;;;32.47;29.17;;;8.40;99.90;;;;;;6107483;23;20298;-78
2022/03/17 03:59:53;;;;;;;31.00;28.00;;;8.40;99.90;;;;;;6109407;23;20187;-78
2022/03/17 04:02:22;;;;;;;30.33;27.23;;;8.30;99.90;;;;;;6108301;23;20189;-78
2022/03/17 04:04:48;;;;;;;31.85;28.63;;;8.30;99.90;;;;;;6109873;23;20291;-78
2022/03/17 04:07:18;;;;;;;32.05;28.75;;;8.40;99.90;;;;;;6107944;23;20192;-78
2022/03/17 04:09:45;;;;;;;32.08;28.75;;;8.40;99.90;;;;;;6097838;23;20690;-78
2022/03/17 04:12:13;;;;;;;32.50;29.30;;;8.40;99.90;;;;;;6104373;23;20184;-77
2022/03/17 04:14:41;;;;;;;32.88;29.48;;;8.40;99.90;;;;;;6098638;23;20786;-78
2022/03/17 04:17:08;;;;;;;32.13;28.98;;;8.40;99.90;;;;;;6094854;23;20219;-78
2022/03/17 04:19:36;;;;;;;31.40;28.15;;;8.40;99.90;;;;;;6093356;23;20229;-78
2022/03/17 04:22:04;;;;;;;33.13;29.83;;;8.40;99.90;;;;;;6113018;23;20283;-78
2022/03/17 04:24:31;;;;;;;31.38;28.17;;;8.40;99.90;;;;;;6104720;23;20642;-78
2022/03/17 04:26:58;;;;;;;32.85;29.63;;;8.30;99.90;;;;;;6103161;23;20179;-78
2022/03/17 04:29:25;;;;;;;31.70;28.60;;;8.40;99.90;;;;;;6100355;23;20192;-78
2022/03/17 04:31:52;;;;;;;31.13;27.83;;;8.40;99.90;;;;;;6105701;23;20272;-77
2022/03/17 04:34:20;;;;;;;31.95;28.77;;;8.30;99.90;;;;;;6115064;23;20267;-77
2022/03/17 04:36:48;;;;;;;32.30;29.00;;;8.30;99.90;;;;;;6103096;23;20237;-77
2022/03/17 04:39:15;;;;;;;30.45;27.35;;;8.30;99.90;;;;;;6099108;23;20224;-78
2022/03/17 04:41:42;;;;;;;31.45;28.35;;;8.30;99.90;;;;;;6109510;23;20211;-77
2022/03/17 04:44:10;;;;;;;31.42;28.23;;;8.30;99.90;;;;;;6091534;23;20195;-78
2022/03/17 04:46:37;;;;;;;31.58;28.42;;;8.10;99.90;;;;;;6097070;23;20186;-77
2022/03/17 04:49:04;;;;;;;31.33;28.17;;;8.20;99.90;;;;;;6108752;23;20191;-78
2022/03/17 04:51:32;;;;;;;32.25;29.05;;;8.20;99.90;;;;;;6098096;23;20188;-77
2022/03/17 04:53:59;;;;;;;31.05;27.95;;;8.30;99.90;;;;;;6112833;23;20628;-77
2022/03/17 04:56:26;;;;;;;31.10;27.90;;;8.30;99.90;;;;;;6096224;23;20201;-77
2022/03/17 04:58:54;;;;;;;31.80;28.70;;;8.30;99.90;;;;;;6108701;23;20552;-77
2022/03/17 05:01:21;;;;;;;31.40;28.10;;;8.30;99.90;;;;;;6096113;23;20193;-78
2022/03/17 05:03:48;;;;;;;30.85;27.75;;;8.40;99.90;;;;;;6100625;23;20257;-78
2022/03/17 05:06:16;;;;;;;30.60;27.60;;;8.40;99.90;;;;;;6095458;23;20889;-78
2022/03/17 05:08:44;;;;;;;30.15;27.10;;;8.40;99.90;;;;;;6102457;23;20260;-75
2022/03/17 05:11:13;;;;;;;32.83;29.35;;;8.50;99.90;;;;;;6101846;23;20180;-72
2022/03/17 05:13:42;;;;;;;30.48;27.27;;;8.50;99.90;;;;;;6095226;23;20185;-72
2022/03/17 05:16:09;;;;;;;29.95;26.90;;;8.60;99.90;;;;;;6102223;23;20284;-78
2022/03/17 05:18:37;;;;;;;31.92;28.70;;;8.60;99.90;;;;;;6110724;23;20600;-77
2022/03/17 05:21:04;;;;;;;32.20;28.92;;;8.60;99.90;;;;;;6107283;23;20252;-77
2022/03/17 05:23:31;;;;;;;32.63;27.63;;;8.60;99.90;;;;;;6100123;23;20184;-77
2022/03/17 05:25:59;;;;;;;31.55;28.20;;;8.60;99.90;;;;;;6103341;23;20774;-76
2022/03/17 05:28:27;;;;;;;31.17;28.00;;;8.50;99.90;;;;;;6111194;23;20192;-77
2022/03/17 05:30:54;;;;;;;31.77;28.48;;;8.50;99.90;;;;;;6106125;23;20613;-76
2022/03/17 05:33:22;;;;;;;32.00;28.70;;;8.50;99.90;;;;;;6105600;23;20189;-77
2022/03/17 05:35:49;;;;;;;30.15;27.02;;;8.40;99.90;;;;;;6101817;23;20257;-77
2022/03/17 05:38:17;;;;;;;31.63;28.42;;;8.40;99.90;;;;;;6101683;23;20255;-79
2022/03/17 05:40:44;;;;;;;29.08;26.08;;;8.40;99.90;;;;;;6097407;23;20212;-78
2022/03/17 05:43:11;;;;;;;31.23;28.08;;;8.30;99.90;;;;;;6095891;23;20264;-77
2022/03/17 05:45:41;;;;;;;31.42;28.20;;;8.30;99.90;;;;;;6103471;23;20280;-77
2022/03/17 05:48:09;;;;;;;31.00;27.70;;;8.20;99.90;;;;;;6097516;23;20670;-77
2022/03/17 05:50:38;;;;;;;32.67;29.35;;;8.20;99.90;;;;;;6107505;23;20632;-77
2022/03/17 05:53:05;;;;;;;30.67;27.40;;;8.20;99.90;;;;;;6106093;23;20191;-77
2022/03/17 05:55:32;;;;;;;30.65;27.45;;;8.20;99.90;;;;;;6095929;23;20214;-77
2022/03/17 05:58:00;;;;;;;30.17;27.17;;;8.20;99.90;;;;;;6099115;23;20273;-77
2022/03/17 06:00:28;;;;;;;30.13;27.10;;;8.30;99.90;;;;;;6099608;23;20696;-78
2022/03/17 06:02:57;;;;;;;30.90;27.73;;;8.30;99.90;;;;;;6102498;23;20184;-78
2022/03/17 06:05:24;;;;;;;29.80;26.73;;;8.40;99.90;;;;;;6102198;23;20863;-77
2022/03/17 06:07:53;;;;;;;32.80;29.30;;;8.40;99.90;;;;;;6106639;23;20241;-77
2022/03/17 06:10:22;;;;;;;30.00;26.90;;;8.40;99.90;;;;;;6105569;23;20287;-77
2022/03/17 06:12:51;;;;;;;30.92;27.33;;;8.40;99.90;;;;;;6101124;23;20189;-78
2022/03/17 06:15:19;;;;;;;31.40;28.23;;;8.40;99.90;;;;;;6106041;23;20201;-77
2022/03/17 06:17:48;;;;;;;31.10;27.95;;;8.30;99.90;;;;;;6103743;23;20667;-77
2022/03/17 06:20:19;;;;;;;30.15;27.05;;;8.40;99.90;;;;;;6100522;23;20234;-77
2022/03/17 06:22:47;;;;;;;30.17;27.02;;;8.40;99.90;;;;;;6100047;23;20177;-77
2022/03/17 06:25:16;;;;;;;30.50;27.25;;;8.40;99.90;;;;;;6104797;23;20200;-78
2022/03/17 06:27:44;;;;;;;30.52;27.45;;;8.30;99.90;;;;;;6104633;23;20232;-77
2022/03/17 06:30:13;;;;;;;30.77;27.67;;;8.30;99.90;;;;;;6097801;23;20225;-77
2022/03/17 06:32:41;;;;;;;30.95;27.85;;;8.30;99.90;;;;;;6099923;23;20684;-77
2022/03/17 06:35:09;;;;;;;30.15;26.73;;;8.30;99.90;;;;;;6102303;23;21627;-78
2022/03/17 06:37:38;;;;;;;32.30;29.10;;;8.30;99.90;;;;;;6100061;23;20190;-77
2022/03/17 06:40:06;;;;;;;31.48;28.08;;;8.40;99.90;;;;;;6103472;23;20223;-78
2022/03/17 06:42:34;;;;;;;30.95;27.85;;;8.40;99.90;;;;;;6106997;23;20587;-78
2022/03/17 06:45:02;;;;;;;30.48;27.38;;;8.40;99.90;;;;;;6100050;23;20233;-78
2022/03/17 06:47:29;;;;;;;29.92;26.52;;;8.50;99.90;;;;;;6099018;23;20278;-78
2022/03/17 06:49:56;;;;;;;30.92;27.75;;;8.60;99.90;;;;;;6104003;23;20709;-78
2022/03/17 06:52:23;;;;;;;31.33;28.05;;;8.70;99.90;;;;;;6102388;23;20200;-77
2022/03/17 06:54:52;;;;;;;30.63;27.63;;;8.70;99.90;;;;;;6104762;23;20301;-78
2022/03/17 06:57:20;;;;;;;29.88;26.83;;;8.80;99.90;;;;;;6108388;23;20180;-78
2022/03/17 06:59:48;;;;;;;30.55;26.77;;;8.70;99.90;;;;;;6095782;23;20217;-77
2022/03/17 07:02:16;;;;;;;29.17;26.27;;;8.70;99.90;;;;;;6107511;23;20593;-77
2022/03/17 07:04:44;;;;;;;29.83;26.83;;;8.70;99.90;;;;;;6101514;23;20219;-78
2022/03/17 07:07:11;;;;;;;30.77;27.48;;;8.70;99.90;;;;;;6106857;23;20192;-78
2022/03/17 07:09:41;;;;;;;29.35;26.42;;;8.80;99.90;;;;;;6101585;23;20265;-78
2022/03/17 07:12:11;;;;;;;30.95;27.75;;;8.80;99.90;;;;;;6100833;23;20241;-78
2022/03/17 07:14:39;;;;;;;30.02;27.02;;;8.80;99.90;;;;;;6100238;23;20227;-79
2022/03/17 07:17:06;;;;;;;31.52;28.20;;;8.80;99.90;;;;;;6094381;23;20636;-79
2022/03/17 07:19:35;;;;;;;30.60;27.52;;;8.90;99.90;;;;;;6107156;23;20334;-79
2022/03/17 07:22:02;;;;;;;29.83;26.70;;;9.00;99.90;;;;;;6103673;23;20199;-78
2022/03/17 07:24:29;;;;;;;31.10;28.00;;;9.10;99.90;;;;;;6103451;23;21708;-79
2022/03/17 07:26:56;;;;;;;30.33;27.20;;;9.10;99.90;;;;;;6097125;23;20210;-79
2022/03/17 07:29:24;;;;;;;32.22;28.95;;;9.10;99.90;;;;;;6104681;23;20223;-79
2022/03/17 07:31:54;;;;;;;30.63;27.38;;;9.10;99.90;;;;;;6100143;23;20205;-79
2022/03/17 07:34:21;;;;;;;31.42;28.23;;;9.10;99.90;;;;;;6112044;23;20202;-79
2022/03/17 07:36:48;;;;;;;31.33;27.92;;;9.10;99.90;;;;;;6107422;23;20190;-79
2022/03/17 07:39:15;;;;;;;31.33;28.23;;;9.10;99.90;;;;;;6102664;23;20687;-79
2022/03/17 07:41:42;;;;;;;30.40;27.30;;;9.20;99.90;;;;;;6104887;23;20217;-79
2022/03/17 07:44:09;;;;;;;30.65;27.45;;;9.10;99.90;;;;;;6100809;23;20218;-78
2022/03/17 07:46:37;;;;;;;30.00;26.90;;;9.10;99.90;;;;;;6099675;23;20265;-78
2022/03/17 07:49:05;;;;;;;32.22;28.73;;;9.10;99.90;;;;;;6098366;23;20201;-78
2022/03/17 07:51:32;;;;;;;31.92;28.52;;;9.10;99.90;;;;;;6109698;23;20259;-79
2022/03/17 07:53:59;;;;;;;31.15;27.88;;;9.10;99.90;;;;;;6110718;23;20287;-78
2022/03/17 07:56:26;;;;;;;32.75;29.45;;;9.20;99.90;;;;;;6105153;23;20531;-78
2022/03/17 07:58:53;;;;;;;32.20;28.27;;;9.10;99.90;;;;;;6109817;23;20209;-78
2022/03/17 08:01:24;;;;;;;34.20;28.50;;;9.10;99.90;;;;;;6108991;23;20728;-79
2022/03/17 08:03:53;;;;;;;31.73;28.35;;;9.20;99.90;;;;;;6101259;23;20203;-79
2022/03/17 08:06:20;;;;;;;32.63;28.05;;;9.20;99.90;;;;;;6105353;23;20198;-78
2022/03/17 08:08:47;;;;;;;32.38;28.73;;;9.30;99.90;;;;;;6096973;23;20198;-79
2022/03/17 08:11:14;;;;;;;32.67;29.27;;;9.30;99.90;;;;;;6116394;23;20211;-79
2022/03/17 08:13:42;;;;;;;31.27;28.10;;;9.30;99.90;;;;;;6102115;23;20195;-79
2022/03/17 08:16:10;;;;;;;32.65;29.25;;;9.40;99.90;;;;;;6098929;23;20214;-78
2022/03/17 08:18:38;;;;;;;31.25;28.15;;;9.40;99.90;;;;;;6099061;23;20209;-78
2022/03/17 08:21:06;;;;;;;31.67;28.42;;;9.40;99.90;;;;;;6103455;23;20271;-78
2022/03/17 08:23:33;;;;;;;31.83;28.52;;;9.40;99.90;;;;;;6111814;23;20589;-79
2022/03/17 08:26:01;;;;;;;33.10;29.80;;;9.40;99.90;;;;;;6108791;23;20189;-78
2022/03/17 08:28:28;;;;;;;32.60;29.20;;;9.50;99.90;;;;;;6105728;23;20184;-78
2022/03/17 08:30:56;;;;;;;30.75;27.55;;;9.40;99.90;;;;;;6109111;23;20189;-78
2022/03/17 08:33:23;;;;;;;33.35;29.92;;;9.50;99.90;;;;;;6104073;23;20215;-78
2022/03/17 08:35:50;;;;;;;31.83;28.60;;;9.50;99.90;;;;;;6109385;23;20241;-78
2022/03/17 08:38:18;;;;;;;33.88;30.38;;;9.50;99.90;;;;;;6096469;23;20192;-78
2022/03/17 08:40:45;;;;;;;31.95;28.75;;;9.50;99.90;;;;;;6100710;23;20213;-78
2022/03/17 08:43:13;;;;;;;33.83;30.23;;;9.50;99.90;;;;;;6108038;23;20261;-78
2022/03/17 08:51:12;;;;;;;32.65;29.35;;;9.70;99.90;;;;;;6103415;23;20190;-79
2022/03/17 08:53:40;;;;;;;35.40;31.17;;;9.80;99.90;;;;;;6104778;23;20589;-80
2022/03/17 08:56:07;;;;;;;34.63;31.20;;;9.80;99.90;;;;;;6111508;23;20216;-78
2022/03/17 08:58:37;;;;;;;34.60;31.17;;;9.90;99.90;;;;;;6102620;23;20711;-79
2022/03/17 09:01:04;;;;;;;35.40;31.55;;;9.90;99.90;;;;;;6105063;23;20209;-79
2022/03/17 09:03:32;;;;;;;34.33;30.65;;;9.90;99.90;;;;;;6102982;23;20282;-79
2022/03/17 09:06:00;;;;;;;34.60;31.00;;;10.00;99.90;;;;;;6096182;23;20882;-78
2022/03/17 09:08:28;;;;;;;35.42;31.77;;;10.00;99.90;;;;;;6097084;23;20190;-78
2022/03/17 09:10:56;;;;;;;33.50;30.15;;;10.10;99.90;;;;;;6105193;23;20225;-78
2022/03/17 09:13:25;;;;;;;35.53;31.73;;;10.10;99.90;;;;;;6111193;23;20542;-77
2022/03/17 09:15:53;;;;;;;36.05;32.28;;;10.20;99.90;;;;;;6101386;23;20541;-78
2022/03/17 09:18:21;;;;;;;34.35;30.92;;;10.30;99.90;;;;;;6111743;23;20274;-78
2022/03/17 09:20:49;;;;;;;35.80;32.20;;;10.40;99.90;;;;;;6104620;23;20287;-76
2022/03/17 09:23:17;;;;;;;33.70;30.30;;;10.40;99.90;;;;;;6111767;23;20634;-76
2022/03/17 09:25:44;;;;;;;34.70;31.00;;;10.40;99.90;;;;;;6103820;23;20191;-76
2022/03/17 09:28:13;;;;;;;34.80;31.20;;;10.50;99.90;;;;;;6105902;23;20190;-76
2022/03/17 09:30:41;;;;;;;35.03;31.52;;;10.50;99.90;;;;;;6099655;23;20262;-76
2022/03/17 09:33:09;;;;;;;34.55;31.02;;;10.60;99.90;;;;;;6109089;23;20241;-76
2022/03/17 09:35:36;;;;;;;35.10;31.75;;;10.70;99.90;;;;;;6098639;23;20245;-79
2022/03/17 09:38:04;;;;;;;33.40;30.10;;;10.70;99.90;;;;;;6100041;23;20661;-76
2022/03/17 09:40:31;;;;;;;33.35;30.02;;;10.70;99.90;;;;;;6094975;23;20216;-77
2022/03/17 09:45:43;;;;;;;33.58;29.95;;;10.90;99.90;;;;;;6100693;23;20266;-76
2022/03/17 09:48:11;;;;;;;33.03;29.70;;;11.00;99.90;;;;;;6097845;23;20678;-76
2022/03/17 09:50:39;;;;;;;32.85;29.55;;;11.00;99.90;;;;;;6102174;23;20195;-76
2022/03/17 09:53:07;;;;;;;32.20;29.05;;;11.10;99.90;;;;;;6104493;23;20647;-76
2022/03/17 09:55:34;;;;;;;32.50;29.10;;;11.30;99.90;;;;;;6105127;23;20267;-76
2022/03/17 09:58:03;;;;;;;33.45;30.10;;;11.40;99.90;;;;;;6097711;23;20222;-76
2022/03/17 10:03:13;;;;;;;32.83;29.50;;;11.70;99.90;;;;;;6108874;23;20210;-76
2022/03/17 10:05:40;;;;;;;31.58;28.48;;;11.90;99.90;;;;;;6105684;23;20183;-78
2022/03/17 10:08:07;;;;;;;33.47;30.17;;;12.00;99.90;;;;;;6100156;23;20278;-78
2022/03/17 10:10:37;;;;;;;31.60;28.40;;;12.10;99.90;;;;;;6104373;23;20700;-78
2022/03/17 10:13:06;;;;;;;33.33;30.23;;;12.20;99.90;;;;;;6109571;23;20195;-77
2022/03/17 10:15:33;;;;;;;32.65;29.33;;;12.30;99.90;;;;;;6104098;23;20202;-78
2022/03/17 10:18:01;;;;;;;32.92;29.73;;;12.30;99.90;;;;;;6110117;23;20219;-78
2022/03/17 10:20:31;;;;;;;32.40;29.08;;;12.40;99.90;;;;;;6106658;23;20245;-78
2022/03/17 10:23:01;;;;;;;31.83;28.80;;;12.40;99.90;;;;;;6091854;23;20241;-78
2022/03/17 10:25:30;;;;;;;31.83;28.73;;;12.50;99.90;;;;;;6105113;23;20187;-78
2022/03/17 10:27:59;;;;;;;33.90;30.65;;;12.60;99.90;;;;;;6097787;23;20187;-77
2022/03/17 10:30:32;;;;;;;34.38;30.92;;;12.60;99.90;;;;;;6112705;23;20184;-76
2022/03/17 10:33:01;;;;;;;32.33;29.33;;;12.60;99.90;;;;;;6107288;23;20191;-76
2022/03/17 10:35:34;;;;;;;30.80;27.80;;;12.70;99.90;;;;;;6104152;23;20749;-76
2022/03/17 10:38:11;;;;;;;32.47;29.20;;;12.80;99.90;;;;;;6111856;23;20437;-76
2022/03/17 10:40:39;;;;;;;32.40;29.20;;;13.00;99.90;;;;;;6101649;23;20242;-76
2022/03/17 10:43:17;;;;;;;32.85;29.75;;;13.20;99.90;;;;;;6103812;23;20255;-76
2022/03/17 10:45:44;;;;;;;32.70;29.20;;;13.30;99.90;;;;;;6101375;23;20685;-76
2022/03/17 10:48:11;;;;;;;31.00;27.87;;;13.40;99.90;;;;;;6095020;23;20437;-76
2022/03/17 10:50:40;;;;;;;31.08;27.92;;;13.40;99.90;;;;;;6100164;23;20555;-76
2022/03/17 10:53:07;;;;;;;31.80;28.70;;;13.50;99.90;;;;;;6098893;23;20231;-76
2022/03/17 10:55:37;;;;;;;30.97;27.90;;;13.50;99.90;;;;;;6098652;23;20508;-76
2022/03/17 10:58:14;;;;;;;31.57;28.47;;;13.50;99.90;;;;;;6107910;23;20447;-76
2022/03/17 11:00:49;;;;;;;32.77;29.30;;;13.40;99.90;;;;;;6098775;23;20473;-76
2022/03/17 11:03:17;;;;;;;30.85;27.75;;;13.40;99.90;;;;;;6105986;23;20465;-76
2022/03/17 11:05:45;;;;;;;30.92;27.65;;;13.40;99.90;;;;;;6095293;23;20183;-77
2022/03/17 11:08:14;;;;;;;31.55;28.35;;;13.30;99.90;;;;;;6102595;23;20180;-77
2022/03/17 11:10:42;;;;;;;30.87;27.80;;;13.30;99.90;;;;;;6112648;23;20203;-78
2022/03/17 11:13:11;;;;;;;31.33;28.15;;;13.30;99.90;;;;;;6112944;23;20965;-78
2022/03/17 11:15:40;;;;;;;30.10;27.10;;;13.30;99.90;;;;;;6100081;23;20185;-78
2022/03/17 11:18:11;;;;;;;30.50;27.35;;;13.30;99.90;;;;;;6100911;23;20187;-78
2022/03/17 11:20:39;;;;;;;31.02;27.92;;;13.40;99.90;;;;;;6103799;23;20301;-78
2022/03/17 11:23:19;;;;;;;29.73;26.90;;;13.30;99.90;;;;;;6117843;23;20203;-78
2022/03/17 11:25:54;;;;;;;30.52;27.35;;;13.10;99.90;;;;;;6106882;23;20187;-78
2022/03/17 11:28:32;;;;;;;31.48;28.35;;;13.10;99.90;;;;;;6108271;23;20290;-78
2022/03/17 11:31:01;;;;;;;30.73;27.67;;;13.10;99.90;;;;;;6100000;23;20183;-78
2022/03/17 11:33:31;;;;;;;32.88;29.48;;;13.10;99.90;;;;;;6110588;23;20204;-78
2022/03/17 11:36:00;;;;;;;32.50;29.20;;;13.00;99.90;;;;;;6099169;23;20203;-78
2022/03/17 11:38:32;;;;;;;32.25;29.10;;;12.90;99.90;;;;;;6102428;23;20694;-78
2022/03/17 11:41:08;;;;;;;32.10;28.83;;;12.80;99.90;;;;;;6103263;23;20221;-78
2022/03/17 11:44:00;;;;;;;30.65;27.75;;;12.70;99.90;;;;;;6101734;23;20198;-78
2022/03/17 11:46:36;;;;;;;31.48;28.35;;;12.70;99.90;;;;;;6106313;23;20630;-78
2022/03/17 11:49:22;;;;;;;31.50;28.45;;;12.80;99.90;;;;;;6097018;23;20516;-78
2022/03/17 11:52:00;;;;;;;30.70;27.67;;;12.80;99.90;;;;;;6106987;23;20195;-78
2022/03/17 11:54:29;;;;;;;32.35;29.15;;;12.90;99.90;;;;;;6097801;23;20212;-78
2022/03/17 11:56:59;;;;;;;30.88;28.05;;;12.90;99.90;;;;;;6099522;23;20189;-78
2022/03/17 11:59:31;;;;;;;32.17;28.90;;;12.90;99.90;;;;;;6096264;23;20393;-78
2022/03/17 12:01:58;;;;;;;32.58;29.15;;;13.10;99.90;;;;;;6109904;23;20194;-79
2022/03/17 12:04:30;;;;;;;31.98;28.95;;;13.20;99.90;;;;;;6096993;23;20262;-78
2022/03/17 12:07:08;;;;;;;33.53;30.08;;;13.30;99.90;;;;;;6107629;23;20223;-78
2022/03/17 12:09:38;;;;;;;32.15;29.15;;;13.40;99.90;;;;;;6094186;23;20180;-78
2022/03/17 12:12:17;;;;;;;32.88;29.73;;;13.40;99.90;;;;;;6103654;23;20259;-79
2022/03/17 12:14:49;;;;;;;31.55;28.48;;;13.40;99.90;;;;;;6108568;23;20200;-78
2022/03/17 12:17:18;;;;;;;31.50;28.50;;;13.40;99.90;;;;;;6105084;23;20194;-78
2022/03/17 12:19:49;;;;;;;31.77;28.58;;;13.50;99.90;;;;;;6110356;23;20435;-78
2022/03/17 12:22:18;;;;;;;30.47;27.60;;;13.60;99.90;;;;;;6095007;23;20188;-78
2022/03/17 12:24:49;;;;;;;29.88;26.92;;;13.70;99.90;;;;;;6111589;23;20844;-78
2022/03/17 12:27:28;;;;;;;31.37;28.23;;;13.70;99.90;;;;;;6102830;23;20190;-78
2022/03/17 12:29:58;;;;;;;32.27;29.13;;;13.90;99.90;;;;;;6109410;23;20445;-78
2022/03/17 12:32:27;;;;;;;30.47;27.67;;;13.90;99.90;;;;;;6109562;23;20441;-79
2022/03/17 12:34:55;;;;;;;31.13;28.13;;;14.00;99.90;;;;;;6103622;23;20475;-79
2022/03/17 12:37:24;;;;;;;31.10;28.03;;;14.10;99.90;;;;;;6101190;23;20445;-79
2022/03/17 12:39:54;;;;;;;31.10;28.17;;;14.10;99.90;;;;;;6096754;23;20450;-78
2022/03/17 12:42:26;;;;;;;31.23;28.23;;;14.10;99.90;;;;;;6105590;23;20984;-79
2022/03/17 12:44:59;;;;;;;31.57;28.50;;;14.20;99.90;;;;;;6114116;23;21005;-79
2022/03/17 12:47:28;;;;;;;31.20;28.20;;;14.20;99.90;;;;;;6108385;23;20461;-78
2022/03/17 12:49:56;;;;;;;29.17;26.40;;;14.00;99.90;;;;;;6110283;23;20466;-79
2022/03/17 12:52:25;;;;;;;32.03;28.90;;;14.00;99.90;;;;;;6107257;23;20186;-79
2022/03/17 12:54:54;;;;;;;29.60;26.90;;;13.90;99.90;;;;;;6107433;23;20450;-78
2022/03/17 12:57:22;;;;;;;30.00;27.13;;;14.00;99.90;;;;;;6112498;23;20442;-79